createdAt,value
2016-12-20T00:00:12.998Z,31.46
2016-12-20T00:01:16.454Z,31.37
2016-12-20T00:02:19.901Z,31.37
2016-12-20T00:03:23.361Z,31.46
2016-12-20T00:04:26.822Z,31.37
2016-12-20T00:05:30.264Z,31.37
2016-12-20T00:06:33.721Z,31.37
2016-12-20T00:07:37.180Z,31.37
2016-12-20T00:08:40.628Z,31.46
2016-12-20T00:09:44.083Z,31.46
2016-12-20T00:10:47.543Z,31.46
2016-12-20T00:11:50.987Z,31.56
2016-12-20T00:12:54.447Z,31.46
2016-12-20T00:13:57.901Z,31.37
2016-12-20T00:15:01.347Z,31.46
2016-12-20T00:16:04.801Z,31.46
2016-12-20T00:17:08.248Z,31.37
2016-12-20T00:18:11.694Z,31.46
2016-12-20T00:19:15.147Z,31.37
2016-12-20T00:20:18.595Z,31.46
2016-12-20T00:21:22.055Z,31.56
2016-12-20T00:22:25.508Z,31.65
2016-12-20T00:23:28.954Z,31.46
2016-12-20T00:24:32.406Z,31.46
2016-12-20T00:25:35.861Z,31.46
2016-12-20T00:26:39.307Z,31.56
2016-12-20T00:27:42.766Z,31.46
2016-12-20T00:28:46.226Z,31.37
2016-12-20T00:29:49.671Z,31.46
2016-12-20T00:30:53.129Z,31.46
2016-12-20T00:31:56.577Z,31.46
2016-12-20T00:33:00.031Z,31.37
2016-12-20T00:34:03.489Z,31.46
2016-12-20T00:35:06.946Z,31.56
2016-12-20T00:36:10.391Z,31.46
2016-12-20T00:37:13.847Z,31.46
2016-12-20T00:38:17.292Z,31.56
2016-12-20T00:39:20.739Z,31.46
2016-12-20T00:40:24.191Z,31.56
2016-12-20T00:41:27.633Z,31.56
2016-12-20T00:42:31.086Z,31.46
2016-12-20T00:43:34.536Z,31.37
2016-12-20T00:44:37.990Z,31.56
2016-12-20T00:45:41.450Z,31.56
2016-12-20T00:46:44.906Z,31.46
2016-12-20T01:03:52.196Z,31.46
2016-12-20T01:04:55.641Z,31.56
2016-12-20T01:05:59.101Z,31.65
2016-12-20T01:07:02.553Z,31.46
2016-12-20T01:08:05.998Z,31.63
2016-12-20T01:09:09.449Z,31.75
2016-12-20T01:10:12.899Z,31.75
2016-12-20T01:11:16.353Z,31.56
2016-12-20T01:12:19.806Z,31.56
2016-12-20T01:13:23.244Z,31.46
2016-12-20T01:14:26.709Z,31.65
2016-12-20T01:15:30.158Z,31.45
2016-12-20T01:16:33.613Z,31.54
2016-12-20T01:17:37.061Z,31.63
2016-12-20T01:18:40.512Z,31.63
2016-12-20T01:19:43.950Z,31.56
2016-12-20T01:20:47.408Z,31.65
2016-12-20T01:21:50.873Z,31.45
2016-12-20T01:22:54.312Z,31.73
2016-12-20T01:23:57.771Z,31.45
2016-12-20T01:25:01.220Z,31.75
2016-12-20T01:26:04.672Z,31.65
2016-12-20T01:27:08.132Z,31.63
2016-12-20T01:28:11.592Z,31.63
2016-12-20T01:29:15.035Z,31.63
2016-12-20T01:30:18.487Z,31.63
2016-12-20T01:31:21.935Z,31.63
2016-12-20T01:32:25.388Z,31.63
2016-12-20T01:33:28.839Z,31.63
2016-12-20T01:34:32.285Z,31.73
2016-12-20T01:35:35.743Z,31.73
2016-12-20T01:36:39.196Z,31.63
2016-12-20T01:37:42.640Z,31.73
2016-12-20T01:38:46.092Z,31.63
2016-12-20T01:39:49.548Z,31.63
2016-12-20T01:40:52.994Z,31.63
2016-12-20T01:41:56.455Z,31.63
2016-12-20T01:42:59.913Z,31.73
2016-12-20T01:44:03.351Z,31.73
2016-12-20T01:45:06.815Z,31.54
2016-12-20T01:46:10.272Z,31.73
2016-12-20T01:47:13.717Z,31.73
2016-12-20T01:48:17.178Z,31.73
2016-12-20T01:49:20.626Z,31.73
2016-12-20T01:50:24.080Z,31.73
2016-12-20T01:51:27.538Z,31.83
2016-12-20T01:52:30.996Z,31.73
2016-12-20T01:53:34.441Z,31.83
2016-12-20T01:54:37.900Z,31.83
2016-12-20T01:55:41.359Z,31.73
2016-12-20T01:56:44.803Z,31.73
2016-12-20T01:57:48.262Z,31.73
2016-12-20T01:58:51.719Z,31.73
2016-12-20T01:59:55.166Z,31.73
2016-12-20T02:00:58.624Z,31.63
2016-12-20T02:02:02.083Z,31.73
2016-12-20T02:03:05.526Z,31.73
2016-12-20T02:04:08.979Z,31.63
2016-12-20T02:05:12.427Z,31.73
2016-12-20T02:06:15.873Z,31.63
2016-12-20T02:07:19.324Z,31.73
2016-12-20T02:08:22.767Z,31.83
2016-12-20T02:09:26.223Z,31.63
2016-12-20T02:10:29.680Z,31.73
2016-12-20T02:11:33.125Z,31.73
2016-12-20T02:12:36.582Z,31.73
2016-12-20T02:13:40.040Z,31.63
2016-12-20T02:14:43.493Z,31.63
2016-12-20T02:15:46.946Z,31.63
2016-12-20T02:16:50.402Z,31.63
2016-12-20T02:17:53.847Z,31.45
2016-12-20T02:18:57.311Z,31.63
2016-12-20T02:20:00.764Z,31.73
2016-12-20T02:21:04.210Z,31.54
2016-12-20T02:22:07.668Z,31.73
2016-12-20T02:23:11.125Z,31.73
2016-12-20T02:24:14.571Z,31.73
2016-12-20T02:25:18.022Z,31.63
2016-12-20T02:26:21.471Z,31.63
2016-12-20T02:27:24.918Z,31.73
2016-12-20T02:28:28.368Z,31.73
2016-12-20T02:29:31.811Z,31.63
2016-12-20T02:30:35.266Z,31.63
2016-12-20T02:31:38.723Z,31.63
2016-12-20T02:32:42.169Z,31.63
2016-12-20T02:33:45.628Z,31.73
2016-12-20T02:34:49.084Z,31.73
2016-12-20T02:35:52.530Z,31.73
2016-12-20T02:36:55.983Z,31.73
2016-12-20T02:37:59.430Z,31.73
2016-12-20T02:39:02.877Z,31.63
2016-12-20T02:40:06.326Z,31.63
2016-12-20T02:41:09.767Z,31.73
2016-12-20T02:42:13.219Z,31.63
2016-12-20T02:43:16.665Z,31.73
2016-12-20T02:44:20.112Z,31.73
2016-12-20T02:45:23.563Z,31.63
2016-12-20T02:46:27.004Z,31.63
2016-12-20T02:47:30.462Z,31.63
2016-12-20T02:48:33.917Z,31.73
2016-12-20T02:49:37.362Z,31.73
2016-12-20T02:50:40.815Z,31.73
2016-12-20T02:51:44.262Z,31.73
2016-12-20T02:52:47.709Z,31.73
2016-12-20T02:53:51.160Z,31.73
2016-12-20T02:54:54.598Z,31.63
2016-12-20T02:55:58.051Z,31.63
2016-12-20T02:57:01.498Z,31.63
2016-12-20T02:58:04.944Z,31.54
2016-12-20T02:59:08.395Z,31.63
2016-12-20T03:00:11.834Z,31.63
2016-12-20T03:01:15.293Z,31.63
2016-12-20T03:02:18.750Z,31.73
2016-12-20T03:03:22.196Z,31.54
2016-12-20T03:04:25.654Z,31.73
2016-12-20T03:05:29.115Z,31.63
2016-12-20T03:06:32.557Z,31.63
2016-12-20T03:07:36.018Z,31.73
2016-12-20T03:08:39.473Z,31.63
2016-12-20T03:09:42.918Z,31.63
2016-12-20T03:10:46.372Z,31.63
2016-12-20T03:11:49.819Z,31.73
2016-12-20T03:12:53.264Z,31.54
2016-12-20T03:13:56.716Z,31.45
2016-12-20T03:15:00.154Z,31.63
2016-12-20T03:16:03.606Z,31.63
2016-12-20T03:17:07.061Z,31.73
2016-12-20T03:18:10.515Z,31.63
2016-12-20T03:19:13.968Z,31.54
2016-12-20T03:20:17.415Z,31.63
2016-12-20T03:21:20.863Z,31.54
2016-12-20T03:22:24.312Z,31.54
2016-12-20T03:23:27.755Z,31.63
2016-12-20T03:24:31.209Z,31.54
2016-12-20T03:25:34.671Z,31.63
2016-12-20T03:26:38.113Z,31.63
2016-12-20T03:27:41.571Z,31.54
2016-12-20T03:28:45.028Z,31.73
2016-12-20T03:29:48.475Z,31.63
2016-12-20T03:30:51.928Z,31.63
2016-12-20T03:31:55.375Z,31.63
2016-12-20T03:32:58.821Z,31.63
2016-12-20T03:34:02.270Z,31.54
2016-12-20T03:35:05.710Z,31.63
2016-12-20T03:36:09.171Z,31.54
2016-12-20T03:37:12.627Z,31.54
2016-12-20T03:38:16.072Z,31.73
2016-12-20T03:39:19.531Z,31.73
2016-12-20T03:40:22.986Z,31.63
2016-12-20T03:41:26.434Z,31.81
2016-12-20T03:42:29.894Z,31.73
2016-12-20T03:43:33.349Z,31.63
2016-12-20T03:44:36.796Z,31.73
2016-12-20T03:45:40.254Z,31.63
2016-12-20T03:46:43.709Z,31.63
2016-12-20T03:47:47.157Z,31.63
2016-12-20T03:48:50.616Z,31.63
2016-12-20T03:49:54.077Z,31.54
2016-12-20T03:50:57.520Z,31.54
2016-12-20T03:52:00.977Z,31.73
2016-12-20T03:53:04.440Z,31.73
2016-12-20T03:54:07.880Z,31.63
2016-12-20T03:55:11.334Z,31.52
2016-12-20T03:56:14.780Z,31.63
2016-12-20T03:57:18.233Z,31.93
2016-12-20T03:58:21.681Z,31.83
2016-12-20T03:59:25.127Z,31.81
2016-12-20T04:00:28.589Z,31.83
2016-12-20T04:01:32.041Z,31.54
2016-12-20T04:02:35.490Z,31.63
2016-12-20T04:03:38.949Z,31.63
2016-12-20T04:04:42.400Z,31.62
2016-12-20T04:05:45.843Z,31.93
2016-12-20T04:06:49.300Z,31.72
2016-12-20T04:07:52.758Z,31.73
2016-12-20T04:08:56.200Z,31.83
2016-12-20T04:09:59.661Z,31.81
2016-12-20T04:11:03.100Z,31.73
2016-12-20T04:12:06.554Z,31.73
2016-12-20T04:13:10.005Z,31.73
2016-12-20T04:14:13.461Z,31.91
2016-12-20T04:15:16.909Z,31.83
2016-12-20T04:16:20.359Z,31.73
2016-12-20T04:17:23.803Z,31.83
2016-12-20T04:18:27.258Z,31.83
2016-12-20T04:19:30.716Z,31.62
2016-12-20T04:20:34.160Z,31.83
2016-12-20T04:21:37.612Z,31.83
2016-12-20T04:22:41.059Z,31.81
2016-12-20T04:23:44.506Z,31.72
2016-12-20T04:24:47.956Z,31.72
2016-12-20T04:25:51.400Z,31.73
2016-12-20T04:26:54.855Z,31.73
2016-12-20T04:27:58.311Z,31.83
2016-12-20T04:29:01.756Z,31.83
2016-12-20T04:30:05.216Z,31.72
2016-12-20T04:31:08.674Z,31.73
2016-12-20T04:32:12.119Z,31.73
2016-12-20T04:33:15.570Z,31.83
2016-12-20T04:34:19.017Z,31.73
2016-12-20T04:35:22.471Z,31.72
2016-12-20T04:36:25.920Z,31.72
2016-12-20T04:37:29.379Z,31.73
2016-12-20T04:38:32.830Z,31.83
2016-12-20T04:39:36.278Z,31.83
2016-12-20T04:40:39.725Z,31.83
2016-12-20T04:41:43.186Z,31.91
2016-12-20T04:42:46.640Z,31.81
2016-12-20T04:43:50.085Z,31.63
2016-12-20T04:44:53.536Z,31.62
2016-12-20T04:45:56.994Z,31.73
2016-12-20T04:47:00.438Z,31.63
2016-12-20T04:48:03.898Z,31.72
2016-12-20T04:49:07.353Z,31.72
2016-12-20T04:50:10.800Z,31.72
2016-12-20T04:51:14.260Z,31.83
2016-12-20T04:52:17.718Z,31.72
2016-12-20T04:53:21.163Z,31.81
2016-12-20T04:54:24.621Z,31.91
2016-12-20T04:55:28.075Z,31.73
2016-12-20T04:56:31.523Z,31.83
2016-12-20T04:57:34.983Z,31.72
2016-12-20T04:58:38.441Z,31.83
2016-12-20T04:59:41.885Z,31.91
2016-12-20T05:00:45.345Z,31.81
2016-12-20T05:01:48.801Z,31.72
2016-12-20T05:02:52.246Z,31.72
2016-12-20T05:03:55.707Z,31.72
2016-12-20T05:04:59.169Z,31.72
2016-12-20T05:06:02.610Z,31.72
2016-12-20T05:07:06.069Z,31.62
2016-12-20T05:08:09.523Z,31.63
2016-12-20T05:09:12.971Z,31.62
2016-12-20T05:10:16.430Z,31.72
2016-12-20T05:11:19.887Z,31.73
2016-12-20T05:12:23.332Z,31.83
2016-12-20T05:13:26.791Z,31.72
2016-12-20T05:14:30.259Z,31.83
2016-12-20T05:15:33.718Z,31.62
2016-12-20T05:16:37.165Z,31.62
2016-12-20T05:17:40.618Z,31.72
2016-12-20T05:18:44.067Z,31.72
2016-12-20T05:19:47.527Z,31.91
2016-12-20T05:20:50.978Z,31.73
2016-12-20T05:21:54.424Z,31.62
2016-12-20T05:22:57.875Z,31.62
2016-12-20T05:24:01.334Z,31.81
2016-12-20T05:25:04.779Z,31.91
2016-12-20T05:26:08.250Z,31.91
2016-12-20T05:27:11.702Z,31.62
2016-12-20T05:28:15.147Z,31.81
2016-12-20T05:29:18.600Z,31.93
2016-12-20T05:30:22.056Z,31.91
2016-12-20T05:31:25.503Z,31.81
2016-12-20T05:32:28.954Z,31.81
2016-12-20T05:33:32.405Z,31.91
2016-12-20T05:34:35.852Z,31.83
2016-12-20T05:35:39.301Z,27.76
2016-12-20T05:36:42.744Z,25.62
2016-12-20T05:37:46.196Z,24.08
2016-12-20T05:38:49.655Z,24.95
2016-12-20T05:39:53.098Z,26.39
2016-12-20T05:40:56.556Z,26.78
2016-12-20T05:42:00.008Z,27.85
2016-12-20T05:43:03.464Z,28.14
2016-12-20T05:44:06.922Z,29
2016-12-20T05:45:10.377Z,28.81
2016-12-20T05:46:13.827Z,28.91
2016-12-20T05:47:17.280Z,29.77
2016-12-20T05:48:20.722Z,29.2
2016-12-20T05:49:24.174Z,28.91
2016-12-20T05:50:27.625Z,28.52
2016-12-20T05:51:31.067Z,28.81
2016-12-20T05:52:34.531Z,28.42
2016-12-20T05:53:37.993Z,28.83
2016-12-20T05:54:41.445Z,28.92
2016-12-20T05:55:44.901Z,29.41
2016-12-20T05:56:48.349Z,29.89
2016-12-20T05:57:51.806Z,30.56
2016-12-20T05:58:55.252Z,30.56
2016-12-20T05:59:58.721Z,30.18
2016-12-20T06:01:02.169Z,30.18
2016-12-20T06:02:05.622Z,30.66
2016-12-20T06:03:09.074Z,31.14
2016-12-20T06:04:12.530Z,30.66
2016-12-20T06:05:15.976Z,30.66
2016-12-20T06:06:19.431Z,30.66
2016-12-20T06:07:22.877Z,30.76
2016-12-20T06:08:26.338Z,30.94
2016-12-20T06:09:29.788Z,30.37
2016-12-20T06:11:00.720Z,29.89
2016-12-20T06:12:04.161Z,29.21
2016-12-20T06:13:07.616Z,29.41
2016-12-20T06:14:11.058Z,30.08
2016-12-20T06:15:14.511Z,29.98
2016-12-20T06:16:17.957Z,30.37
2016-12-20T06:17:21.401Z,30.46
2016-12-20T06:18:24.852Z,30.58
2016-12-20T06:19:55.193Z,30.18
2016-12-20T06:20:58.667Z,30.85
2016-12-20T06:22:02.120Z,30.85
2016-12-20T06:23:05.563Z,31.62
2016-12-20T06:24:09.040Z,32.01
2016-12-20T06:25:12.487Z,31.72
2016-12-20T06:26:15.927Z,32.12
2016-12-20T06:27:19.381Z,32.01
2016-12-20T06:28:22.831Z,32.12
2016-12-20T06:29:26.280Z,32.01
2016-12-20T06:30:29.755Z,32.12
2016-12-20T06:31:33.192Z,31.93
2016-12-20T06:32:36.645Z,32.41
2016-12-20T06:33:40.097Z,32.03
2016-12-20T06:34:43.547Z,32.12
2016-12-20T06:35:46.991Z,32.12
2016-12-20T06:36:50.445Z,32.12
2016-12-20T06:37:53.906Z,32.41
2016-12-20T06:38:57.355Z,32.79
2016-12-20T06:40:00.806Z,32.6
2016-12-20T06:41:04.240Z,32.79
2016-12-20T06:42:07.689Z,32.79
2016-12-20T06:43:11.150Z,32.51
2016-12-20T06:44:14.610Z,32.7
2016-12-20T06:45:18.072Z,33.28
2016-12-20T06:46:21.536Z,32.7
2016-12-20T06:47:52.587Z,32.89
2016-12-20T06:48:56.025Z,32.89
2016-12-20T06:49:59.481Z,32.99
2016-12-20T06:51:02.941Z,32.99
2016-12-20T06:52:06.391Z,32.99
2016-12-20T06:53:09.833Z,32.99
2016-12-20T06:54:13.294Z,32.79
2016-12-20T06:55:16.745Z,33.1
2016-12-20T06:56:20.185Z,32.79
2016-12-20T06:57:23.644Z,33.1
2016-12-20T06:58:27.090Z,33.1
2016-12-20T06:59:57.943Z,33.29
2016-12-20T07:01:01.407Z,32.89
2016-12-20T07:02:04.860Z,33
2016-12-20T07:03:08.302Z,33.2
2016-12-20T07:04:11.746Z,33.2
2016-12-20T07:05:15.198Z,33.29
2016-12-20T07:06:18.651Z,32.91
2016-12-20T07:07:22.108Z,33.39
2016-12-20T07:08:25.579Z,33.29
2016-12-20T07:09:55.877Z,33
2016-12-20T07:10:59.322Z,33.68
2016-12-20T07:12:02.793Z,33.2
2016-12-20T07:13:06.237Z,33.1
2016-12-20T07:14:09.672Z,33.78
2016-12-20T07:15:13.120Z,33.68
2016-12-20T07:16:16.577Z,33.48
2016-12-20T07:17:20.023Z,34.74
2016-12-20T07:18:23.500Z,34.55
2016-12-20T07:19:26.961Z,33.68
2016-12-20T07:20:30.427Z,34.26
2016-12-20T07:21:33.872Z,33.39
2016-12-20T07:22:37.313Z,33.78
2016-12-20T07:24:08.175Z,33.7
2016-12-20T07:25:11.617Z,34.38
2016-12-20T07:26:15.069Z,34.38
2016-12-20T07:27:18.538Z,34.47
2016-12-20T07:28:21.977Z,34.28
2016-12-20T07:29:25.432Z,34.28
2016-12-20T07:30:28.872Z,34.18
2016-12-20T07:31:32.900Z,34.28
2016-12-20T07:32:36.354Z,33.5
2016-12-20T07:33:39.798Z,33.22
2016-12-20T07:34:43.251Z,33.7
2016-12-20T07:35:46.702Z,33.98
2016-12-20T07:36:50.160Z,33.7
2016-12-20T07:38:21.058Z,33.98
2016-12-20T07:39:24.508Z,34.66
2016-12-20T07:40:27.969Z,33.98
2016-12-20T07:41:31.419Z,33.5
2016-12-20T07:42:34.865Z,33.12
2016-12-20T07:43:38.300Z,33.7
2016-12-20T07:46:10.331Z,34.08
2016-12-20T07:47:13.783Z,33.8
2016-12-20T07:48:17.234Z,33.7
2016-12-20T07:49:20.676Z,33.4
2016-12-20T07:50:24.150Z,33.12
2016-12-20T07:51:27.610Z,33.33
2016-12-20T07:52:31.061Z,33.7
2016-12-20T07:53:34.511Z,33.23
2016-12-20T07:54:37.975Z,33.62
2016-12-20T07:55:41.425Z,33.23
2016-12-20T07:56:44.877Z,33.52
2016-12-20T07:59:18.413Z,33.81
2016-12-20T08:00:21.856Z,33.72
2016-12-20T08:01:25.319Z,33.81
2016-12-20T08:02:28.777Z,33.52
2016-12-20T08:04:00.599Z,31.88
2016-12-20T08:05:04.046Z,32.17
2016-12-20T08:06:07.520Z,32.56
2016-12-20T08:07:10.962Z,31.3
2016-12-20T08:08:14.425Z,32.07
2016-12-20T08:09:18.427Z,31.88
2016-12-20T08:10:21.323Z,31.01
2016-12-20T08:11:24.777Z,31.3
2016-12-20T08:12:28.233Z,31.88
2016-12-20T08:13:31.711Z,32.07
2016-12-20T08:14:35.171Z,31.98
2016-12-20T08:15:38.620Z,32.17
2016-12-20T08:16:42.069Z,31.68
2016-12-20T08:17:45.534Z,31.78
2016-12-20T08:18:48.981Z,30.82
2016-12-20T08:19:52.443Z,31.49
2016-12-20T08:20:55.884Z,31.78
2016-12-20T08:21:59.351Z,31.68
2016-12-20T08:23:02.834Z,32.17
2016-12-20T08:24:06.281Z,32.65
2016-12-20T08:25:09.755Z,31.88
2016-12-20T08:26:13.224Z,32.65
2016-12-20T08:28:45.266Z,33.23
2016-12-20T08:29:48.718Z,33.23
2016-12-20T08:30:52.172Z,33.04
2016-12-20T08:31:55.608Z,33.23
2016-12-20T08:32:59.068Z,32.36
2016-12-20T08:34:02.509Z,31.88
2016-12-20T08:35:05.967Z,32.17
2016-12-20T08:36:09.429Z,32.26
2016-12-20T08:37:12.881Z,31.88
2016-12-20T08:38:16.346Z,31.88
2016-12-20T08:39:19.787Z,31.49
2016-12-20T08:40:23.238Z,30.82
2016-12-20T08:41:26.704Z,30.91
2016-12-20T08:42:30.136Z,30.82
2016-12-20T08:43:33.599Z,30.72
2016-12-20T08:44:37.067Z,30.43
2016-12-20T08:45:40.519Z,30.14
2016-12-20T08:46:43.965Z,30.52
2016-12-20T08:47:47.432Z,30.91
2016-12-20T08:48:50.888Z,31.49
2016-12-20T08:49:54.344Z,31.2
2016-12-20T08:50:57.790Z,31.88
2016-12-20T08:52:01.263Z,31.49
2016-12-20T08:53:04.719Z,31.78
2016-12-20T08:54:08.173Z,31.98
2016-12-20T08:55:11.630Z,31.98
2016-12-20T08:56:15.086Z,32.17
2016-12-20T08:57:18.536Z,32.09
2016-12-20T08:58:21.986Z,32.18
2016-12-20T08:59:25.451Z,31.6
2016-12-20T09:00:28.903Z,32.17
2016-12-20T09:01:32.339Z,32.18
2016-12-20T09:02:35.800Z,32.28
2016-12-20T09:03:39.252Z,31.6
2016-12-20T09:04:42.707Z,31.8
2016-12-20T09:05:46.154Z,31.99
2016-12-20T09:06:49.601Z,32.09
2016-12-20T09:07:53.051Z,32.18
2016-12-20T09:08:56.516Z,31.99
2016-12-20T09:09:59.963Z,32.07
2016-12-20T09:12:32.042Z,32.09
2016-12-20T09:13:35.496Z,31.99
2016-12-20T09:14:38.942Z,31.8
2016-12-20T09:15:42.397Z,31.89
2016-12-20T09:16:45.857Z,32.18
2016-12-20T09:17:49.305Z,32.28
2016-12-20T09:18:52.751Z,31.99
2016-12-20T09:19:56.201Z,31.99
2016-12-20T09:20:59.666Z,31.99
2016-12-20T09:22:03.121Z,31.89
2016-12-20T09:23:06.581Z,32.18
2016-12-20T09:24:10.035Z,31.99
2016-12-20T09:26:42.004Z,32.09
2016-12-20T09:27:45.457Z,31.99
2016-12-20T09:28:48.926Z,32.09
2016-12-20T09:29:52.380Z,31.02
2016-12-20T09:30:55.817Z,31.02
2016-12-20T09:31:59.287Z,30.73
2016-12-20T09:33:30.538Z,30.35
2016-12-20T09:34:34.014Z,30.54
2016-12-20T09:35:37.486Z,30.25
2016-12-20T09:36:40.932Z,30.05
2016-12-20T09:37:44.372Z,29.75
2016-12-20T09:40:17.573Z,29.57
2016-12-20T09:41:21.023Z,29.47
2016-12-20T09:42:24.484Z,29.38
2016-12-20T09:43:27.936Z,29.28
2016-12-20T09:44:31.393Z,29.77
2016-12-20T09:45:34.844Z,29.56
2016-12-20T09:46:38.300Z,29.86
2016-12-20T09:47:41.776Z,29.47
2016-12-20T09:48:45.893Z,29.09
2016-12-20T09:49:48.693Z,29.19
2016-12-20T09:50:52.140Z,29.19
2016-12-20T09:51:55.590Z,28.89
2016-12-20T09:52:59.054Z,28.99
2016-12-20T09:54:02.506Z,29.08
2016-12-20T09:55:05.968Z,28.78
2016-12-20T09:56:09.422Z,28.78
2016-12-20T09:58:21.808Z,28.88
2016-12-20T09:59:51.746Z,28.59
2016-12-20T10:00:55.189Z,28.78
2016-12-20T10:01:58.665Z,28.88
2016-12-20T10:03:02.108Z,28.78
2016-12-20T10:04:05.549Z,28.78
2016-12-20T10:05:35.491Z,29.17
2016-12-20T10:06:38.936Z,29.28
2016-12-20T10:07:42.409Z,29.67
2016-12-20T10:10:15.572Z,29.86
2016-12-20T10:11:19.021Z,30.63
2016-12-20T10:12:22.472Z,30.44
2016-12-20T10:13:26.916Z,30.25
2016-12-20T10:14:56.455Z,30.54
2016-12-20T10:15:59.897Z,30.44
2016-12-20T10:17:03.419Z,30.73
2016-12-20T10:18:06.798Z,30.83
2016-12-20T10:19:10.249Z,30.73
2016-12-20T10:20:13.705Z,30.63
2016-12-20T10:21:17.162Z,30.73
2016-12-20T10:22:20.620Z,30.83
2016-12-20T10:24:54.312Z,30.83
2016-12-20T10:26:25.566Z,31.22
2016-12-20T10:27:54.816Z,31.33
2016-12-20T10:28:58.265Z,30.94
2016-12-20T10:30:01.715Z,31.51
2016-12-20T10:31:05.158Z,30.83
2016-12-20T10:32:08.596Z,31.23
2016-12-20T10:33:12.072Z,31.43
2016-12-20T10:34:15.518Z,31.43
2016-12-20T10:35:18.966Z,30.93
2016-12-20T10:36:22.435Z,30.83
2016-12-20T10:37:25.875Z,30.94
2016-12-20T10:38:29.340Z,31.71
2016-12-20T10:39:33.287Z,30.94
2016-12-20T10:40:36.731Z,30.85
2016-12-20T10:41:40.176Z,30.94
2016-12-20T10:42:43.634Z,30.94
2016-12-20T10:43:47.085Z,30.94
2016-12-20T10:44:50.541Z,31.71
2016-12-20T10:45:53.993Z,31.81
2016-12-20T10:46:58.346Z,32.2
2016-12-20T10:48:01.808Z,30.94
2016-12-20T10:49:05.254Z,31.13
2016-12-20T10:50:08.709Z,31.62
2016-12-20T10:52:40.495Z,32.1
2016-12-20T10:53:43.932Z,32.29
2016-12-20T10:54:47.371Z,32.01
2016-12-20T10:55:50.824Z,31.71
2016-12-20T10:56:54.270Z,31.91
2016-12-20T10:57:57.732Z,32.01
2016-12-20T10:59:01.220Z,32.1
2016-12-20T11:00:04.682Z,32.01
2016-12-20T11:01:08.135Z,32.2
2016-12-20T11:02:11.580Z,32.1
2016-12-20T11:04:43.255Z,31.81
2016-12-20T11:08:43.135Z,32.2
2016-12-20T11:09:46.594Z,32.2
2016-12-20T11:10:50.052Z,31.91
2016-12-20T11:11:53.502Z,31.7
2016-12-20T11:12:56.976Z,31.99
2016-12-20T11:14:00.433Z,31.91
2016-12-20T11:15:03.902Z,32.2
2016-12-20T11:16:07.351Z,32.2
2016-12-20T11:17:10.806Z,32.2
2016-12-20T11:18:14.265Z,32.1
2016-12-20T11:19:17.712Z,32.09
2016-12-20T11:20:21.177Z,32.2
2016-12-20T11:21:24.678Z,32.1
2016-12-20T11:22:28.134Z,32.1
2016-12-20T11:23:31.592Z,32.18
2016-12-20T11:24:35.070Z,32.1
2016-12-20T11:25:39.357Z,32.1
2016-12-20T11:26:41.959Z,32.09
2016-12-20T11:27:45.417Z,32.01
2016-12-20T11:28:48.867Z,31.8
2016-12-20T11:29:52.325Z,31.91
2016-12-20T11:30:55.773Z,31.91
2016-12-20T11:31:59.243Z,31.81
2016-12-20T11:33:02.708Z,31.62
2016-12-20T11:34:06.170Z,33.37
2016-12-20T11:36:32.159Z,19.91
2016-12-20T11:37:35.596Z,18.85
2016-12-20T11:39:06.108Z,18.65
2016-12-20T11:40:10.487Z,18.46
2016-12-20T11:41:14.810Z,17.97
2016-12-20T11:42:17.418Z,18.46
2016-12-20T11:43:21.814Z,17.88
2016-12-20T11:44:26.066Z,17.78
2016-12-20T11:45:29.508Z,17.97
2016-12-20T11:46:32.961Z,18.07
2016-12-20T11:47:36.413Z,17.88
2016-12-20T11:48:39.856Z,18.17
2016-12-20T11:49:43.310Z,18.07
2016-12-20T11:50:46.788Z,17.97
2016-12-20T11:51:50.226Z,18.07
2016-12-20T11:52:53.671Z,18.17
2016-12-20T11:53:57.118Z,18.07
2016-12-20T11:55:00.559Z,18.07
2016-12-20T11:56:04.012Z,17.97
2016-12-20T11:57:07.466Z,17.59
2016-12-20T11:58:10.896Z,17.68
2016-12-20T11:59:14.361Z,17.59
2016-12-20T12:00:17.812Z,17.78
2016-12-20T12:01:21.256Z,18.07
2016-12-20T12:02:24.709Z,17.88
2016-12-20T12:03:28.151Z,17.79
2016-12-20T12:04:31.602Z,18.37
2016-12-20T12:05:35.031Z,17.79
2016-12-20T12:06:38.513Z,18.76
2016-12-20T12:07:41.989Z,18.85
2016-12-20T12:08:45.468Z,18.95
2016-12-20T12:09:48.902Z,18.95
2016-12-20T12:10:52.354Z,19.06
2016-12-20T12:11:55.819Z,19.25
2016-12-20T12:12:59.292Z,19.54
2016-12-20T12:14:02.747Z,19.83
2016-12-20T12:15:06.191Z,20.03
2016-12-20T12:16:09.640Z,20.31
2016-12-20T12:17:13.077Z,20.03
2016-12-20T12:18:16.505Z,19.83
2016-12-20T12:19:19.934Z,20.03
2016-12-20T12:20:23.381Z,19.84
2016-12-20T12:21:26.824Z,20.32
2016-12-20T12:22:30.269Z,20.03
2016-12-20T12:23:33.712Z,20.71
2016-12-20T12:24:37.175Z,20.62
2016-12-20T12:25:40.621Z,20.62
2016-12-20T12:26:44.065Z,21.2
2016-12-20T12:27:47.522Z,21
2016-12-20T12:28:50.974Z,21.1
2016-12-20T12:29:54.420Z,21.59
2016-12-20T12:30:57.863Z,21.39
2016-12-20T12:32:01.302Z,21.4
2016-12-20T12:33:05.330Z,21.48
2016-12-20T12:34:08.464Z,20.23
2016-12-20T12:35:11.932Z,20.81
2016-12-20T12:36:15.381Z,20.81
2016-12-20T12:37:18.832Z,20.62
2016-12-20T12:38:22.286Z,20.62
2016-12-20T12:39:25.724Z,20.71
2016-12-20T12:40:29.188Z,20.52
2016-12-20T12:41:32.641Z,20.23
2016-12-20T12:42:36.078Z,20.32
2016-12-20T12:43:39.538Z,20.32
2016-12-20T12:44:42.996Z,20.23
2016-12-20T12:45:46.455Z,20.23
2016-12-20T12:46:49.911Z,19.95
2016-12-20T12:47:53.370Z,19.94
2016-12-20T12:48:56.817Z,20.13
2016-12-20T12:50:00.274Z,20.04
2016-12-20T12:51:03.730Z,19.75
2016-12-20T12:52:07.192Z,19.56
2016-12-20T12:53:10.644Z,20.13
2016-12-20T12:54:14.089Z,20.03
2016-12-20T12:55:18.347Z,20.31
2016-12-20T12:56:47.846Z,20.21
2016-12-20T12:57:51.313Z,20.12
2016-12-20T12:58:54.787Z,20.12
2016-12-20T12:59:58.276Z,20.12
2016-12-20T13:01:01.795Z,20.51
2016-12-20T13:03:34.939Z,20.12
2016-12-20T13:04:38.393Z,20.89
2016-12-20T13:05:41.845Z,20.41
2016-12-20T13:06:45.294Z,20.89
2016-12-20T13:07:48.732Z,21.09
2016-12-20T13:08:52.204Z,20.99
2016-12-20T13:09:55.674Z,21.09
2016-12-20T13:10:59.128Z,20.8
2016-12-20T13:12:02.580Z,20.89
2016-12-20T13:13:06.039Z,21.19
2016-12-20T13:14:09.489Z,21.19
2016-12-20T13:15:12.938Z,21.09
2016-12-20T13:16:16.415Z,20.99
2016-12-20T13:17:19.874Z,21.19
2016-12-20T13:18:23.305Z,21.28
2016-12-20T13:19:26.764Z,21.2
2016-12-20T13:20:30.231Z,21.38
2016-12-20T13:21:33.671Z,21.48
2016-12-20T13:22:37.138Z,21.2
2016-12-20T13:23:40.597Z,22.16
2016-12-20T13:24:44.043Z,22.26
2016-12-20T13:25:47.498Z,22.36
2016-12-20T13:26:50.951Z,22.26
2016-12-20T13:27:54.424Z,22.06
2016-12-20T13:28:57.859Z,21.68
2016-12-20T13:30:01.321Z,21.88
2016-12-20T13:31:04.828Z,22.16
2016-12-20T13:32:08.269Z,22.16
2016-12-20T13:33:11.712Z,22.06
2016-12-20T13:34:15.184Z,21.97
2016-12-20T13:35:18.649Z,22.06
2016-12-20T13:36:22.083Z,22.06
2016-12-20T13:37:25.529Z,22.16
2016-12-20T13:38:28.971Z,22.26
2016-12-20T13:39:32.435Z,22.36
2016-12-20T13:41:02.694Z,21.98
2016-12-20T13:43:35.869Z,22.08
2016-12-20T13:44:39.322Z,22.37
2016-12-20T13:45:42.783Z,22.27
2016-12-20T13:46:46.230Z,22.16
2016-12-20T13:47:49.688Z,22.16
2016-12-20T13:48:53.137Z,22.08
2016-12-20T13:49:56.589Z,21.5
2016-12-20T13:51:00.050Z,22.17
2016-12-20T13:52:03.508Z,22.37
2016-12-20T13:53:06.954Z,22.27
2016-12-20T13:54:10.411Z,22.27
2016-12-20T13:55:13.884Z,22.47
2016-12-20T13:56:17.352Z,22.37
2016-12-20T13:57:20.795Z,22.56
2016-12-20T13:58:24.791Z,22.37
2016-12-20T13:59:28.213Z,22.27
2016-12-20T14:00:31.676Z,22.47
2016-12-20T14:03:04.849Z,22.66
2016-12-20T14:04:08.311Z,22.85
2016-12-20T14:05:12.585Z,23.43
2016-12-20T14:07:45.699Z,22.85
2016-12-20T14:08:49.141Z,22.85
2016-12-20T14:09:52.586Z,22.94
2016-12-20T14:10:56.035Z,22.66
2016-12-20T14:11:59.497Z,22.75
2016-12-20T14:13:02.957Z,23.05
2016-12-20T14:14:06.387Z,23.14
2016-12-20T14:15:09.831Z,22.95
2016-12-20T14:16:13.285Z,22.95
2016-12-20T14:17:16.727Z,22.94
2016-12-20T14:18:20.184Z,22.74
2016-12-20T14:19:23.646Z,22.94
2016-12-20T14:20:27.592Z,23.23
2016-12-20T14:21:30.535Z,23.52
2016-12-20T14:22:33.983Z,24.01
2016-12-20T14:23:37.426Z,23.91
2016-12-20T14:24:40.891Z,23.42
2016-12-20T14:25:44.349Z,24.01
2016-12-20T14:26:47.812Z,24.01
2016-12-20T14:27:51.287Z,23.63
2016-12-20T14:28:54.753Z,24.02